createdAt,value
2023-01-20T00:15:31.957Z,100
2023-01-20T01:15:36.141Z,100
2023-01-20T01:35:36.877Z,100
2023-01-20T01:55:37.790Z,100
2023-01-20T02:05:38.520Z,100
2023-01-20T02:15:39.354Z,100
2023-01-20T02:25:39.788Z,100
2023-01-20T02:35:40.884Z,100
2023-01-20T02:45:41.358Z,100
2023-01-20T03:05:42.254Z,100
2023-01-20T03:15:43.122Z,100
2023-01-20T03:45:45.305Z,100
2023-01-20T03:55:46.095Z,100
2023-01-20T04:05:46.791Z,100
2023-01-20T04:15:47.390Z,100
2023-01-20T04:25:48.022Z,100
2023-01-20T04:35:48.927Z,100
2023-01-20T04:45:49.299Z,100
2023-01-20T04:55:50.308Z,100
2023-01-20T05:05:51.251Z,100
2023-01-20T05:15:52.302Z,100
2023-01-20T06:05:56.084Z,100
2023-01-20T06:15:57.016Z,100
2023-01-20T06:25:57.576Z,100
2023-01-20T06:45:58.920Z,100
2023-01-20T07:06:00.750Z,100
2023-01-20T07:16:01.742Z,100
2023-01-20T07:36:02.985Z,100
2023-01-20T07:46:03.997Z,100
2023-01-20T07:56:04.230Z,100
2023-01-20T08:06:04.404Z,100
2023-01-20T08:16:05.276Z,100
2023-01-20T08:26:06.028Z,100
2023-01-20T08:36:06.708Z,100
2023-01-20T08:46:06.928Z,100
2023-01-20T08:56:07.903Z,100
2023-01-20T09:16:08.506Z,100
2023-01-20T09:26:09.483Z,100
2023-01-20T09:36:10.156Z,100
2023-01-20T09:46:11.087Z,100
2023-01-20T09:56:11.758Z,99
2023-01-20T10:16:13.151Z,99
2023-01-20T10:26:13.691Z,98
2023-01-20T10:46:14.563Z,98
2023-01-20T10:56:14.836Z,97
2023-01-20T11:06:15.394Z,97
2023-01-20T11:16:15.539Z,97
2023-01-20T11:26:16.234Z,96
2023-01-20T11:36:17.048Z,96
2023-01-20T11:46:17.702Z,96
2023-01-20T11:56:18.622Z,95
2023-01-20T12:06:19.563Z,95
2023-01-20T12:26:20.092Z,96
2023-01-20T12:36:20.981Z,96
2023-01-20T12:46:21.873Z,95
2023-01-20T12:56:22.602Z,94
2023-01-20T13:26:25.814Z,93
2023-01-20T13:56:26.812Z,92
2023-01-20T14:16:28.042Z,93
2023-01-20T14:26:28.438Z,91
2023-01-20T14:36:29.393Z,91
2023-01-20T14:56:30.355Z,92
2023-01-20T15:16:31.509Z,92
2023-01-20T15:26:31.644Z,92
2023-01-20T15:36:32.162Z,93
2023-01-20T15:46:32.675Z,94
2023-01-20T15:56:33.407Z,94
2023-01-20T16:06:34.288Z,95
2023-01-20T16:16:34.604Z,95
2023-01-20T16:26:35.570Z,95
2023-01-20T16:36:36.635Z,95
2023-01-20T16:46:37.681Z,95
2023-01-20T16:56:37.840Z,95
2023-01-20T17:26:38.896Z,95
2023-01-20T17:36:39.485Z,95
2023-01-20T17:46:40.028Z,96
2023-01-20T17:56:40.500Z,96
2023-01-20T18:06:41.430Z,97
2023-01-20T18:16:42.631Z,97
2023-01-20T18:36:43.477Z,96
2023-01-20T18:56:44.243Z,97
2023-01-20T19:06:45.135Z,99
2023-01-20T19:26:46.547Z,99
2023-01-20T19:46:47.390Z,100
2023-01-20T19:56:48.338Z,100
2023-01-20T20:06:48.912Z,100
2023-01-20T20:16:49.260Z,100
2023-01-20T20:26:50.172Z,100
2023-01-20T20:36:50.998Z,100
2023-01-20T20:46:51.861Z,100
2023-01-20T20:56:52.555Z,100
2023-01-20T21:06:53.020Z,100
2023-01-20T21:16:53.408Z,100
2023-01-20T21:26:53.730Z,100
2023-01-20T21:36:54.084Z,100
2023-01-20T21:46:54.647Z,100
2023-01-20T21:56:55.085Z,100
2023-01-20T22:06:55.859Z,100
2023-01-20T22:16:56.267Z,100
2023-01-20T22:26:56.991Z,100
2023-01-20T22:36:57.981Z,100
2023-01-20T22:46:58.838Z,100
2023-01-20T22:56:59.827Z,100
2023-01-20T23:17:00.481Z,100
2023-01-20T23:37:01.977Z,100
2023-01-20T23:47:02.239Z,100
2023-01-20T23:57:02.734Z,100
